createdAt,value
2018-05-10T00:01:54.569Z,13.00
2018-05-10T00:04:22.127Z,13.50
2018-05-10T00:06:49.645Z,17.40
2018-05-10T00:09:17.247Z,15.40
2018-05-10T00:11:44.776Z,13.93
2018-05-10T00:14:12.332Z,12.10
2018-05-10T00:16:39.898Z,10.60
2018-05-10T00:19:07.415Z,11.27
2018-05-10T00:21:35.033Z,11.80
2018-05-10T00:24:02.562Z,13.77
2018-05-10T00:26:30.167Z,16.67
2018-05-10T00:28:57.698Z,16.57
2018-05-10T00:31:25.450Z,11.47
2018-05-10T00:33:52.981Z,11.67
2018-05-10T00:36:20.597Z,10.70
2018-05-10T00:38:48.157Z,16.13
2018-05-10T00:41:15.702Z,12.60
2018-05-10T00:43:43.255Z,13.33
2018-05-10T00:46:10.870Z,16.47
2018-05-10T00:48:38.384Z,13.37
2018-05-10T00:51:05.914Z,16.20
2018-05-10T00:53:33.560Z,13.43
2018-05-10T00:56:01.093Z,15.53
2018-05-10T00:58:28.656Z,16.73
2018-05-10T01:00:56.184Z,15.93
2018-05-10T01:03:23.697Z,13.37
2018-05-10T01:05:51.233Z,17.30
2018-05-10T01:08:18.785Z,11.73
2018-05-10T01:10:46.304Z,15.17
2018-05-10T01:13:13.910Z,11.70
2018-05-10T01:15:41.436Z,16.43
2018-05-10T01:18:08.956Z,18.43
2018-05-10T01:20:36.471Z,13.33
2018-05-10T01:23:03.999Z,12.03
2018-05-10T01:25:31.611Z,12.27
2018-05-10T01:27:59.432Z,16.47
2018-05-10T01:30:27.060Z,13.83
2018-05-10T01:32:54.566Z,13.23
2018-05-10T01:35:33.929Z,16.73
2018-05-10T01:38:01.443Z,13.60
2018-05-10T01:40:29.020Z,11.10
2018-05-10T01:42:56.541Z,13.87
2018-05-10T01:45:24.171Z,13.47
2018-05-10T01:47:51.704Z,13.97
2018-05-10T01:50:19.228Z,16.80
2018-05-10T01:52:46.750Z,14.50
2018-05-10T01:55:14.264Z,13.87
2018-05-10T01:57:41.814Z,14.73
2018-05-10T02:00:09.423Z,15.63
2018-05-10T02:02:36.983Z,11.67
2018-05-10T02:05:04.504Z,14.40
2018-05-10T02:07:32.059Z,14.30
2018-05-10T02:09:59.667Z,19.03
2018-05-10T02:12:27.191Z,12.77
2018-05-10T02:14:54.787Z,17.07
2018-05-10T02:17:22.314Z,12.43
2018-05-10T02:19:49.828Z,13.63
2018-05-10T02:22:17.466Z,12.73
2018-05-10T02:24:44.983Z,16.60
2018-05-10T02:27:12.518Z,12.10
2018-05-10T02:29:40.197Z,14.00
2018-05-10T02:32:07.679Z,13.47
2018-05-10T02:34:35.247Z,17.10
2018-05-10T02:37:02.764Z,15.80
2018-05-10T02:39:30.292Z,14.43
2018-05-10T02:41:57.948Z,17.80
2018-05-10T02:44:25.472Z,16.73
2018-05-10T02:46:53.000Z,14.77
2018-05-10T02:49:20.525Z,16.00
2018-05-10T02:51:48.084Z,18.60
2018-05-10T02:54:15.599Z,14.87
2018-05-10T02:56:43.127Z,17.10
2018-05-10T02:59:10.715Z,15.40
2018-05-10T03:01:38.349Z,11.60
2018-05-10T03:04:06.022Z,15.70
2018-05-10T03:06:33.668Z,15.20
2018-05-10T03:09:01.217Z,16.50
2018-05-10T03:11:28.875Z,13.93
2018-05-10T03:13:56.400Z,11.80
2018-05-10T03:16:23.962Z,15.17
2018-05-10T03:18:51.547Z,14.80
2018-05-10T03:21:19.106Z,18.63
2018-05-10T03:23:46.637Z,15.93
2018-05-10T03:26:14.155Z,16.13
2018-05-10T03:28:41.708Z,16.63
2018-05-10T03:31:09.281Z,19.83
2018-05-10T03:33:36.835Z,12.93
2018-05-10T03:36:04.375Z,12.97
2018-05-10T03:38:31.896Z,12.20
2018-05-10T03:40:59.413Z,16.17
2018-05-10T03:43:26.949Z,14.57
2018-05-10T03:45:54.473Z,11.57
2018-05-10T03:48:22.061Z,17.73
2018-05-10T03:50:49.594Z,14.50
2018-05-10T03:53:17.152Z,17.10
2018-05-10T03:55:44.683Z,13.13
2018-05-10T03:58:12.314Z,17.27
2018-05-10T04:00:39.841Z,15.67
2018-05-10T04:06:32.868Z,14.47
2018-05-10T04:09:12.310Z,13.57
2018-05-10T04:11:39.840Z,14.30
2018-05-10T04:14:07.355Z,17.17
2018-05-10T04:16:34.913Z,13.33
2018-05-10T04:19:02.447Z,14.37
2018-05-10T04:21:29.978Z,15.47
2018-05-10T04:23:57.524Z,14.27
2018-05-10T04:26:25.096Z,15.87
2018-05-10T04:28:52.658Z,14.60
2018-05-10T04:31:20.188Z,14.23
2018-05-10T04:33:47.776Z,17.10
2018-05-10T04:36:15.324Z,16.93
2018-05-10T04:38:42.893Z,14.43
2018-05-10T04:41:10.457Z,12.83
2018-05-10T04:43:38.018Z,14.80
2018-05-10T04:46:05.582Z,12.80
2018-05-10T04:48:33.111Z,16.00
2018-05-10T04:51:00.694Z,15.40
2018-05-10T04:53:28.224Z,15.13
2018-05-10T04:55:55.802Z,13.93
2018-05-10T04:58:23.377Z,18.33
2018-05-10T05:00:50.887Z,13.63
2018-05-10T05:03:18.506Z,12.40
2018-05-10T05:05:46.069Z,13.50
2018-05-10T05:08:13.720Z,11.77
2018-05-10T05:10:41.235Z,15.53
2018-05-10T05:13:08.760Z,12.47
2018-05-10T05:15:36.282Z,14.00
2018-05-10T05:18:03.807Z,12.07
2018-05-10T05:20:31.338Z,15.03
2018-05-10T05:22:58.882Z,12.37
2018-05-10T05:25:26.435Z,12.47
2018-05-10T05:27:53.980Z,15.07
2018-05-10T05:30:21.535Z,9.97
2018-05-10T05:32:49.142Z,14.10
2018-05-10T05:35:16.678Z,13.63
2018-05-10T05:37:44.319Z,14.93
2018-05-10T05:40:11.897Z,15.10
2018-05-10T05:42:39.403Z,15.87
2018-05-10T05:45:06.998Z,10.17
2018-05-10T05:47:34.507Z,10.37
2018-05-10T05:50:02.073Z,10.97
2018-05-10T05:52:29.683Z,14.10
2018-05-10T05:54:57.285Z,11.57
2018-05-10T05:57:24.744Z,13.70
2018-05-10T05:59:52.359Z,14.83
2018-05-10T06:02:19.887Z,12.70
2018-05-10T06:04:47.415Z,14.30
2018-05-10T06:07:15.039Z,15.33
2018-05-10T06:09:42.563Z,16.87
2018-05-10T06:12:10.102Z,12.77
2018-05-10T06:14:37.614Z,12.37
2018-05-10T06:17:05.150Z,12.53
2018-05-10T06:19:32.751Z,16.63
2018-05-10T06:22:00.267Z,11.90
2018-05-10T06:24:27.871Z,15.17
2018-05-10T06:26:55.433Z,12.23
2018-05-10T06:29:22.947Z,14.80
2018-05-10T06:31:50.555Z,14.30
2018-05-10T06:34:18.109Z,12.33
2018-05-10T06:36:45.672Z,12.70
2018-05-10T06:39:13.187Z,17.13
2018-05-10T06:41:40.792Z,16.90
2018-05-10T06:44:08.308Z,12.47
2018-05-10T06:46:35.885Z,14.83
2018-05-10T06:49:03.399Z,12.37
2018-05-10T06:51:30.917Z,12.20
2018-05-10T06:53:58.593Z,14.63
2018-05-10T06:56:26.156Z,18.00
2018-05-10T06:58:53.685Z,14.20
2018-05-10T07:01:21.259Z,11.47
2018-05-10T07:03:48.782Z,12.87
2018-05-10T07:06:16.374Z,18.67
2018-05-10T07:08:43.966Z,15.63
2018-05-10T07:11:11.607Z,12.77
2018-05-10T07:13:39.176Z,13.50
2018-05-10T07:16:06.733Z,14.10
2018-05-10T07:18:34.291Z,11.83
2018-05-10T07:21:01.831Z,17.63
2018-05-10T07:23:29.415Z,14.93
2018-05-10T07:25:56.922Z,14.43
2018-05-10T07:28:24.465Z,12.70
2018-05-10T07:30:51.986Z,15.43
2018-05-10T07:33:19.517Z,14.90
2018-05-10T07:35:47.032Z,11.67
2018-05-10T07:38:14.553Z,12.60
2018-05-10T07:40:42.125Z,13.30
2018-05-10T07:43:09.686Z,13.43
2018-05-10T07:45:37.232Z,12.67
2018-05-10T07:48:04.747Z,14.43
2018-05-10T07:50:32.356Z,10.50
2018-05-10T07:52:59.912Z,10.00
2018-05-10T07:55:27.445Z,10.57
2018-05-10T07:57:54.968Z,12.40
2018-05-10T08:00:22.496Z,13.50
2018-05-10T08:02:50.019Z,12.73
2018-05-10T08:05:17.555Z,10.47
2018-05-10T08:07:45.085Z,12.37
2018-05-10T08:10:12.700Z,9.70
2018-05-10T08:12:40.162Z,9.95
2018-05-10T08:15:07.704Z,15.23
2018-05-10T08:17:35.226Z,8.90
2018-05-10T08:20:02.774Z,10.18
2018-05-10T08:22:30.323Z,9.90
2018-05-10T08:24:57.887Z,12.63
2018-05-10T08:27:25.457Z,8.98
2018-05-10T08:29:52.975Z,11.75
2018-05-10T08:32:20.499Z,12.10
2018-05-10T08:34:48.026Z,11.12
2018-05-10T08:37:15.688Z,8.57
2018-05-10T08:39:43.230Z,11.52
2018-05-10T08:42:11.787Z,10.48
2018-05-10T08:44:39.321Z,8.30
2018-05-10T08:47:06.862Z,9.05
2018-05-10T08:49:34.424Z,6.35
2018-05-10T08:52:02.016Z,8.93
2018-05-10T08:54:29.559Z,8.05
2018-05-10T08:56:57.074Z,9.75
2018-05-10T08:59:24.819Z,6.18
2018-05-10T09:01:52.663Z,7.78
2018-05-10T09:04:20.306Z,9.70
2018-05-10T09:06:47.833Z,9.80
2018-05-10T09:09:15.364Z,6.18
2018-05-10T09:11:42.916Z,8.30
2018-05-10T09:14:10.530Z,12.00
2018-05-10T09:16:38.052Z,9.88
2018-05-10T09:19:05.756Z,6.97
2018-05-10T09:21:33.838Z,8.18
2018-05-10T09:24:01.493Z,9.55
2018-05-10T09:26:29.051Z,8.82
2018-05-10T09:28:56.577Z,11.18
2018-05-10T09:31:24.168Z,9.57
2018-05-10T09:33:51.689Z,10.25
2018-05-10T09:36:19.211Z,10.63
2018-05-10T09:38:46.788Z,8.68
2018-05-10T09:41:14.323Z,8.60
2018-05-10T09:43:42.073Z,5.87
2018-05-10T09:46:09.626Z,6.40
2018-05-10T09:48:37.136Z,8.30
2018-05-10T09:51:04.650Z,9.43
2018-05-10T09:53:32.191Z,9.43
2018-05-10T09:55:59.746Z,5.72
2018-05-10T09:58:27.302Z,6.68
2018-05-10T10:00:54.823Z,6.40
2018-05-10T10:03:22.437Z,9.38
2018-05-10T10:05:49.959Z,11.02
2018-05-10T10:08:17.626Z,7.47
2018-05-10T10:10:45.162Z,9.10
2018-05-10T10:13:12.863Z,9.52
2018-05-10T10:15:40.469Z,10.18
2018-05-10T10:18:08.000Z,15.88
2018-05-10T10:20:35.540Z,7.28
2018-05-10T10:23:03.056Z,9.10
2018-05-10T10:25:30.579Z,10.40
2018-05-10T10:27:58.151Z,7.53
2018-05-10T10:30:25.712Z,9.77
2018-05-10T10:32:53.266Z,12.30
2018-05-10T10:35:20.784Z,11.32
2018-05-10T10:37:48.391Z,11.68
2018-05-10T10:40:16.008Z,11.93
2018-05-10T10:42:43.511Z,9.02
2018-05-10T10:45:11.056Z,9.27
2018-05-10T10:47:38.615Z,9.05
2018-05-10T10:50:06.191Z,7.82
2018-05-10T10:52:33.752Z,10.90
2018-05-10T10:55:01.281Z,8.88
2018-05-10T10:57:28.857Z,9.23
2018-05-10T10:59:56.393Z,10.32
2018-05-10T11:02:23.924Z,11.05
2018-05-10T11:04:51.546Z,9.85
2018-05-10T11:07:19.075Z,11.60
2018-05-10T11:09:46.608Z,12.57
2018-05-10T11:12:14.127Z,12.33
2018-05-10T11:14:41.683Z,12.20
2018-05-10T11:17:09.202Z,10.50
2018-05-10T11:19:36.805Z,9.73
2018-05-10T11:22:04.377Z,10.13
2018-05-10T11:24:31.895Z,9.87
2018-05-10T11:26:59.496Z,12.43
2018-05-10T11:29:27.017Z,15.67
2018-05-10T11:31:54.615Z,12.93
2018-05-10T11:34:22.149Z,11.33
2018-05-10T11:36:49.681Z,14.97
2018-05-10T11:39:17.258Z,16.37
2018-05-10T11:41:44.775Z,8.53
2018-05-10T11:44:12.303Z,16.80
2018-05-10T11:46:39.834Z,9.13
2018-05-10T11:49:07.411Z,15.30
2018-05-10T11:51:34.965Z,14.17
2018-05-10T11:54:02.480Z,14.00
2018-05-10T11:56:30.008Z,15.20
2018-05-10T11:58:57.528Z,12.73
2018-05-10T12:01:25.079Z,9.93
2018-05-10T12:03:52.657Z,15.10
2018-05-10T12:06:20.247Z,14.47
2018-05-10T12:08:47.767Z,14.00
2018-05-10T12:11:15.327Z,12.83
2018-05-10T12:13:42.917Z,13.70
2018-05-10T12:16:10.457Z,14.63
2018-05-10T12:18:37.977Z,11.17
2018-05-10T12:21:05.606Z,14.67
2018-05-10T12:23:33.131Z,14.23
2018-05-10T12:26:00.836Z,13.70
2018-05-10T12:28:28.347Z,17.47
2018-05-10T12:30:55.990Z,17.87
2018-05-10T12:33:23.491Z,12.37
2018-05-10T12:35:51.037Z,13.80
2018-05-10T12:38:18.549Z,12.97
2018-05-10T12:40:46.190Z,14.87
2018-05-10T12:43:13.711Z,17.57
2018-05-10T12:45:41.229Z,20.23
2018-05-10T12:48:08.764Z,15.40
2018-05-10T12:50:36.324Z,12.73
2018-05-10T12:53:03.847Z,13.13
2018-05-10T12:55:31.396Z,14.60
2018-05-10T12:57:59.004Z,15.83
2018-05-10T13:00:26.532Z,12.20
2018-05-10T13:02:54.098Z,17.27
2018-05-10T13:05:21.592Z,17.00
2018-05-10T13:07:49.110Z,13.03
2018-05-10T13:10:16.652Z,13.67
2018-05-10T13:12:44.229Z,22.30
2018-05-10T13:15:11.739Z,15.57
2018-05-10T13:17:39.274Z,16.90
2018-05-10T13:20:06.803Z,21.53
2018-05-10T13:22:34.324Z,18.00
2018-05-10T13:25:01.857Z,17.27
2018-05-10T13:27:29.419Z,12.33
2018-05-10T13:29:56.939Z,12.40
2018-05-10T13:32:24.520Z,12.00
2018-05-10T13:34:52.096Z,12.47
2018-05-10T13:37:19.656Z,14.97
2018-05-10T13:39:47.209Z,19.93
2018-05-10T13:42:14.739Z,11.67
2018-05-10T13:44:42.261Z,10.37
2018-05-10T13:47:09.976Z,17.03
2018-05-10T13:49:37.428Z,12.90
2018-05-10T13:52:05.000Z,10.83
2018-05-10T13:54:32.579Z,12.87
2018-05-10T13:57:00.133Z,14.67
2018-05-10T13:59:27.660Z,15.00
2018-05-10T14:01:55.250Z,15.37
2018-05-10T14:04:22.815Z,16.97
2018-05-10T14:06:50.340Z,15.87
2018-05-10T14:09:17.860Z,23.87
2018-05-10T14:11:45.392Z,8.73
2018-05-10T14:14:12.925Z,11.30
2018-05-10T14:16:40.479Z,13.77
2018-05-10T14:19:08.069Z,10.90
2018-05-10T14:21:35.595Z,11.93
2018-05-10T14:24:03.132Z,11.67
2018-05-10T14:26:30.758Z,15.40
2018-05-10T14:28:58.285Z,12.27
2018-05-10T14:31:25.792Z,9.47
2018-05-10T14:33:53.346Z,22.77
2018-05-10T14:36:20.990Z,10.47
2018-05-10T14:38:48.515Z,11.53
2018-05-10T14:41:16.032Z,14.67
2018-05-10T14:43:43.554Z,10.77
2018-05-10T14:46:11.083Z,13.53
2018-05-10T14:48:38.684Z,11.33
2018-05-10T14:51:06.205Z,14.53
2018-05-10T14:53:33.727Z,13.27
2018-05-10T14:56:01.263Z,11.63
2018-05-10T14:58:28.792Z,10.63
2018-05-10T15:00:56.354Z,10.17
2018-05-10T15:03:23.893Z,15.70
2018-05-10T15:05:51.441Z,10.83
2018-05-10T15:08:18.965Z,12.07
2018-05-10T15:10:46.476Z,8.60
2018-05-10T15:13:14.045Z,10.50
2018-05-10T15:15:41.703Z,11.37
2018-05-10T15:18:09.156Z,17.40
2018-05-10T15:20:36.695Z,14.13
2018-05-10T15:23:04.324Z,9.20
2018-05-10T15:25:31.881Z,10.87
2018-05-10T15:27:59.398Z,11.33
2018-05-10T15:30:26.919Z,10.90
2018-05-10T15:32:54.547Z,8.50
2018-05-10T15:35:22.076Z,7.83
2018-05-10T15:37:49.648Z,16.17
2018-05-10T15:40:17.169Z,14.10
2018-05-10T15:42:44.706Z,9.53
2018-05-10T15:45:12.255Z,13.77
2018-05-10T15:47:39.776Z,15.87
2018-05-10T15:50:07.359Z,9.70
2018-05-10T15:52:34.968Z,14.83
2018-05-10T15:55:02.603Z,11.80
2018-05-10T15:57:30.264Z,9.87
2018-05-10T15:59:57.794Z,12.03
2018-05-10T16:02:25.311Z,12.95
2018-05-10T16:04:52.828Z,13.40
2018-05-10T16:07:20.367Z,10.83
2018-05-10T16:09:47.969Z,7.30
2018-05-10T16:12:15.503Z,12.47
2018-05-10T16:14:43.083Z,12.73
2018-05-10T16:17:10.594Z,9.87
2018-05-10T16:19:38.129Z,11.37
2018-05-10T16:22:05.753Z,8.33
2018-05-10T16:24:33.324Z,12.25
2018-05-10T16:27:00.868Z,10.37
2018-05-10T16:29:28.915Z,12.40
2018-05-10T16:31:56.507Z,4.77
2018-05-10T16:34:24.047Z,17.70
2018-05-10T16:36:51.563Z,13.57
2018-05-10T16:39:19.107Z,10.27
2018-05-10T16:41:46.754Z,9.07
2018-05-10T16:44:14.491Z,7.87
2018-05-10T16:46:42.020Z,12.00
2018-05-10T16:49:09.560Z,9.13
2018-05-10T16:51:37.104Z,6.40
2018-05-10T16:54:04.619Z,8.83
2018-05-10T16:56:32.137Z,7.10
2018-05-10T16:58:59.778Z,10.80
2018-05-10T17:01:27.444Z,7.87
2018-05-10T17:03:55.024Z,11.70
2018-05-10T17:06:22.629Z,7.57
2018-05-10T17:08:50.593Z,10.53
2018-05-10T17:11:18.193Z,10.97
2018-05-10T17:13:45.851Z,7.90
2018-05-10T17:16:13.390Z,10.60
2018-05-10T17:18:40.899Z,7.83
2018-05-10T17:21:08.636Z,17.80
2018-05-10T17:23:36.394Z,17.00
2018-05-10T17:26:04.068Z,11.70
2018-05-10T17:28:31.725Z,8.13
2018-05-10T17:30:59.374Z,8.03
2018-05-10T17:33:26.951Z,8.57
2018-05-10T17:35:55.033Z,10.10
2018-05-10T17:38:22.680Z,13.00
2018-05-10T17:40:50.343Z,11.63
2018-05-10T17:43:17.897Z,6.53
2018-05-10T17:45:45.448Z,10.47
2018-05-10T17:48:13.044Z,9.17
2018-05-10T17:50:40.584Z,11.33
2018-05-10T17:53:08.141Z,7.53
2018-05-10T17:55:35.715Z,8.83
2018-05-10T17:58:03.303Z,10.67
2018-05-10T18:00:30.889Z,13.83
2018-05-10T18:02:58.409Z,11.07
2018-05-10T18:05:26.481Z,9.93
2018-05-10T18:07:54.012Z,13.17
2018-05-10T18:10:23.679Z,10.50
2018-05-10T18:12:51.212Z,12.23
2018-05-10T18:15:18.726Z,8.47
2018-05-10T18:17:46.296Z,12.47
2018-05-10T18:20:13.860Z,15.57
2018-05-10T18:22:41.419Z,20.13
2018-05-10T18:25:09.078Z,20.47
2018-05-10T18:27:36.637Z,20.87
2018-05-10T18:30:04.190Z,15.07
2018-05-10T18:32:31.748Z,20.30
2018-05-10T18:34:59.307Z,21.63
2018-05-10T18:37:26.881Z,19.03
2018-05-10T18:39:54.530Z,22.00
2018-05-10T18:42:22.060Z,20.87
2018-05-10T18:44:49.656Z,22.63
2018-05-10T18:47:17.210Z,20.47
2018-05-10T18:49:44.748Z,39.97
2018-05-10T18:52:12.268Z,24.43
2018-05-10T18:54:39.894Z,23.67
2018-05-10T18:57:07.459Z,27.27
2018-05-10T18:59:34.983Z,23.83
2018-05-10T19:02:02.522Z,25.37
2018-05-10T19:04:30.198Z,23.77
2018-05-10T19:06:57.690Z,26.43
2018-05-10T19:09:25.221Z,26.97
2018-05-10T19:11:52.819Z,24.67
2018-05-10T19:14:20.380Z,25.97
2018-05-10T19:16:47.936Z,25.50
2018-05-10T19:19:15.512Z,24.50
2018-05-10T19:21:43.017Z,26.60
2018-05-10T19:24:10.619Z,23.23
2018-05-10T19:26:38.138Z,20.53
2018-05-10T19:29:05.672Z,19.70
2018-05-10T19:31:33.201Z,19.93
2018-05-10T19:34:00.728Z,19.73
2018-05-10T19:36:28.325Z,17.53
2018-05-10T19:38:55.847Z,18.70
2018-05-10T19:41:23.373Z,17.73
2018-05-10T19:43:50.899Z,17.50
2018-05-10T19:46:18.430Z,17.83
2018-05-10T19:48:46.019Z,19.87
2018-05-10T19:51:13.583Z,17.40
2018-05-10T19:53:41.104Z,22.13
2018-05-10T19:56:08.699Z,19.93
2018-05-10T19:58:36.223Z,22.63
2018-05-10T20:01:03.743Z,33.37
2018-05-10T20:03:31.277Z,25.83
2018-05-10T20:05:58.842Z,19.73
2018-05-10T20:08:26.420Z,17.97
2018-05-10T20:10:53.944Z,19.60
2018-05-10T20:13:21.516Z,18.90
2018-05-10T20:15:49.075Z,17.37
2018-05-10T20:18:16.607Z,18.80
2018-05-10T20:20:44.195Z,20.70
2018-05-10T20:23:11.740Z,21.97
2018-05-10T20:25:39.276Z,21.07
2018-05-10T20:28:06.808Z,21.40
2018-05-10T20:30:34.431Z,20.80
2018-05-10T20:33:01.983Z,18.93
2018-05-10T20:35:29.540Z,21.60
2018-05-10T20:37:57.073Z,19.17
2018-05-10T20:40:24.611Z,17.60
2018-05-10T20:42:52.149Z,17.67
2018-05-10T20:45:19.676Z,22.23
2018-05-10T20:47:47.220Z,22.97
2018-05-10T20:50:14.768Z,18.27
2018-05-10T20:52:42.298Z,17.87
2018-05-10T20:55:10.002Z,17.63
2018-05-10T20:57:37.594Z,21.97
2018-05-10T21:00:05.119Z,18.13
2018-05-10T21:02:32.635Z,17.83
2018-05-10T21:05:00.171Z,19.40
2018-05-10T21:07:27.682Z,17.47
2018-05-10T21:09:55.213Z,16.17
2018-05-10T21:12:34.729Z,21.33
2018-05-10T21:15:02.445Z,21.23
2018-05-10T21:17:29.970Z,18.97
2018-05-10T21:19:57.496Z,23.37
2018-05-10T21:22:24.311Z,18.13
2018-05-10T21:24:51.915Z,17.13
2018-05-10T21:27:19.577Z,18.10
2018-05-10T21:29:47.096Z,18.63
2018-05-10T21:32:14.631Z,17.80
2018-05-10T21:34:42.213Z,20.70
2018-05-10T21:37:09.830Z,21.03
2018-05-10T21:39:37.346Z,21.77
2018-05-10T21:42:04.872Z,23.83
2018-05-10T21:44:32.444Z,22.53
2018-05-10T21:46:59.980Z,23.30
2018-05-10T21:49:39.392Z,28.17
2018-05-10T21:52:06.910Z,24.17
2018-05-10T21:54:34.452Z,24.03
2018-05-10T21:57:02.181Z,22.87
2018-05-10T21:59:29.836Z,24.27
2018-05-10T22:01:57.377Z,24.70
2018-05-10T22:04:24.956Z,23.77
2018-05-10T22:06:52.517Z,22.90
2018-05-10T22:09:20.054Z,21.33
2018-05-10T22:11:47.632Z,22.40
2018-05-10T22:14:15.163Z,20.77
2018-05-10T22:16:42.687Z,21.03
2018-05-10T22:19:10.321Z,20.67
2018-05-10T22:21:37.974Z,21.73
2018-05-10T22:24:05.516Z,22.27
2018-05-10T22:26:33.040Z,20.90
2018-05-10T22:29:00.572Z,21.37
2018-05-10T22:31:28.213Z,23.40
2018-05-10T22:33:55.777Z,25.77
2018-05-10T22:36:23.303Z,25.23
2018-05-10T22:38:50.840Z,26.13
2018-05-10T22:41:18.372Z,25.77
2018-05-10T22:43:45.984Z,27.10
2018-05-10T22:46:13.513Z,27.73
2018-05-10T22:48:41.037Z,29.03
2018-05-10T22:51:08.568Z,29.77
2018-05-10T22:53:36.090Z,31.03
2018-05-10T22:56:03.614Z,32.30
2018-05-10T22:58:31.144Z,30.20
2018-05-10T23:00:58.663Z,34.37
2018-05-10T23:03:26.293Z,37.47
2018-05-10T23:05:53.821Z,29.83
2018-05-10T23:08:21.618Z,35.20
2018-05-10T23:10:49.172Z,36.53
2018-05-10T23:13:16.732Z,34.67
2018-05-10T23:15:44.966Z,33.63
2018-05-10T23:18:12.528Z,36.73
2018-05-10T23:20:40.089Z,32.03
2018-05-10T23:23:07.680Z,33.10
2018-05-10T23:25:35.212Z,37.17
2018-05-10T23:28:02.740Z,32.20
2018-05-10T23:30:30.255Z,33.13
2018-05-10T23:32:57.837Z,31.17
2018-05-10T23:35:25.357Z,31.73
2018-05-10T23:37:52.939Z,30.07
2018-05-10T23:40:20.512Z,30.17
2018-05-10T23:42:48.070Z,30.80
2018-05-10T23:45:15.607Z,31.57
2018-05-10T23:47:43.190Z,29.27
2018-05-10T23:50:10.710Z,28.37
2018-05-10T23:52:38.306Z,33.73
2018-05-10T23:55:05.873Z,29.13
2018-05-10T23:57:33.404Z,28.93
